createdAt,value
2018-12-15T00:00:24.426Z,94.30
2018-12-15T00:02:55.134Z,94.40
2018-12-15T00:05:25.879Z,94.50
2018-12-15T00:07:54.768Z,94.40
2018-12-15T00:10:23.861Z,94.40
2018-12-15T00:12:52.819Z,93.90
2018-12-15T00:15:21.681Z,94.00
2018-12-15T00:17:50.460Z,94.20
2018-12-15T00:20:19.412Z,94.20
2018-12-15T00:22:48.085Z,94.20
2018-12-15T00:25:16.995Z,94.10
2018-12-15T00:27:45.724Z,94.10
2018-12-15T00:30:14.845Z,94.30
2018-12-15T00:32:43.579Z,94.30
2018-12-15T00:35:12.280Z,94.40
2018-12-15T00:37:41.025Z,94.50
2018-12-15T00:40:09.789Z,94.50
2018-12-15T00:42:38.658Z,94.30
2018-12-15T00:45:07.418Z,94.40
2018-12-15T00:47:36.122Z,94.30
2018-12-15T00:50:04.895Z,94.70
2018-12-15T00:52:33.571Z,94.50
2018-12-15T00:55:02.282Z,94.40
2018-12-15T00:57:31.005Z,94.50
2018-12-15T00:59:59.696Z,94.40
2018-12-15T01:02:28.412Z,94.50
2018-12-15T01:04:57.521Z,94.50
2018-12-15T01:07:26.324Z,94.70
2018-12-15T01:09:55.150Z,94.50
2018-12-15T01:12:24.102Z,94.70
2018-12-15T01:14:53.676Z,94.70
2018-12-15T01:17:22.480Z,94.60
2018-12-15T01:19:51.552Z,94.60
2018-12-15T01:22:20.226Z,94.50
2018-12-15T01:24:49.082Z,94.80
2018-12-15T01:27:17.754Z,94.60
2018-12-15T01:29:46.422Z,94.60
2018-12-15T01:32:15.108Z,94.40
2018-12-15T01:34:43.731Z,94.50
2018-12-15T01:37:12.414Z,94.70
2018-12-15T01:39:41.189Z,94.80
2018-12-15T01:42:10.017Z,94.90
2018-12-15T01:44:38.744Z,94.60
2018-12-15T01:47:07.474Z,94.70
2018-12-15T01:49:36.201Z,94.90
2018-12-15T01:52:04.906Z,94.80
2018-12-15T01:54:33.580Z,94.80
2018-12-15T01:57:02.277Z,94.70
2018-12-15T01:59:31.073Z,94.70
2018-12-15T02:01:59.828Z,94.40
2018-12-15T02:04:28.519Z,94.60
2018-12-15T02:06:57.253Z,94.80
2018-12-15T02:09:25.994Z,94.80
2018-12-15T02:11:54.770Z,94.80
2018-12-15T02:14:24.122Z,94.80
2018-12-15T02:16:52.819Z,94.70
2018-12-15T02:19:21.545Z,94.70
2018-12-15T02:21:50.277Z,94.80
2018-12-15T02:24:19.026Z,94.70
2018-12-15T02:26:47.805Z,94.80
2018-12-15T02:29:16.596Z,94.90
2018-12-15T02:31:45.405Z,95.00
2018-12-15T02:34:14.070Z,95.00
2018-12-15T02:36:42.817Z,95.10
2018-12-15T02:39:11.567Z,95.00
2018-12-15T02:41:47.163Z,94.90
2018-12-15T02:44:12.094Z,94.90
2018-12-15T02:46:40.817Z,95.30
2018-12-15T02:49:09.546Z,95.00
2018-12-15T02:51:38.253Z,95.10
2018-12-15T02:54:06.979Z,95.30
2018-12-15T02:56:35.619Z,95.50
2018-12-15T02:59:04.593Z,95.40
2018-12-15T03:01:33.334Z,95.40
2018-12-15T03:04:02.110Z,95.30
2018-12-15T03:06:30.912Z,95.10
2018-12-15T03:08:59.521Z,95.20
2018-12-15T03:11:28.312Z,94.90
2018-12-15T03:13:57.035Z,94.80
2018-12-15T03:16:25.815Z,95.10
2018-12-15T03:18:55.002Z,94.90
2018-12-15T03:21:24.230Z,95.10
2018-12-15T03:23:52.922Z,95.20
2018-12-15T03:26:21.714Z,95.20
2018-12-15T03:28:50.555Z,95.30
2018-12-15T03:31:19.338Z,95.20
2018-12-15T03:33:48.047Z,95.40
2018-12-15T03:36:17.177Z,95.30
2018-12-15T03:38:45.931Z,95.10
2018-12-15T03:41:14.857Z,95.10
2018-12-15T03:43:43.537Z,95.10
2018-12-15T03:46:12.322Z,94.90
2018-12-15T03:48:41.349Z,95.20
2018-12-15T03:51:10.112Z,95.20
2018-12-15T03:53:38.854Z,94.90
2018-12-15T03:56:07.690Z,94.90
2018-12-15T03:58:36.402Z,94.60
2018-12-15T04:01:05.442Z,94.30
2018-12-15T04:03:34.192Z,94.30
2018-12-15T04:06:02.909Z,94.60
2018-12-15T04:08:31.681Z,94.40
2018-12-15T04:11:01.306Z,93.80
2018-12-15T04:13:30.921Z,93.80
2018-12-15T04:15:59.803Z,93.60
2018-12-15T04:18:28.444Z,93.30
2018-12-15T04:20:57.104Z,93.00
2018-12-15T04:23:25.799Z,93.20
2018-12-15T04:25:55.341Z,93.30
2018-12-15T04:28:24.099Z,93.30
2018-12-15T04:30:52.820Z,93.00
2018-12-15T04:33:21.562Z,92.90
2018-12-15T04:35:50.691Z,93.10
2018-12-15T04:38:19.486Z,93.10
2018-12-15T04:40:48.199Z,93.10
2018-12-15T04:43:16.917Z,93.10
2018-12-15T04:45:45.641Z,93.00
2018-12-15T04:48:14.337Z,93.00
2018-12-15T04:50:43.062Z,92.90
2018-12-15T04:53:11.768Z,92.70
2018-12-15T04:55:40.454Z,92.80
2018-12-15T04:58:09.145Z,92.60
2018-12-15T05:00:37.821Z,92.70
2018-12-15T05:03:06.569Z,92.80
2018-12-15T05:05:35.246Z,92.80
2018-12-15T05:08:04.011Z,92.40
2018-12-15T05:10:32.706Z,92.20
2018-12-15T05:13:01.396Z,92.40
2018-12-15T05:15:30.196Z,92.20
2018-12-15T05:17:59.087Z,92.30
2018-12-15T05:20:27.830Z,92.30
2018-12-15T05:22:56.512Z,92.30
2018-12-15T05:25:26.196Z,92.10
2018-12-15T05:27:55.221Z,92.10
2018-12-15T05:30:23.979Z,91.70
2018-12-15T05:32:52.625Z,91.80
2018-12-15T05:35:21.361Z,91.90
2018-12-15T05:37:50.099Z,91.80
2018-12-15T05:40:18.924Z,91.60
2018-12-15T05:42:47.661Z,91.50
2018-12-15T05:45:16.529Z,91.40
2018-12-15T05:47:45.497Z,91.60
2018-12-15T05:50:14.245Z,91.90
2018-12-15T05:52:43.053Z,91.90
2018-12-15T05:55:11.945Z,91.70
2018-12-15T05:57:40.621Z,91.70
2018-12-15T06:00:09.385Z,91.40
2018-12-15T06:02:39.522Z,91.20
2018-12-15T06:05:09.033Z,91.20
2018-12-15T06:07:37.850Z,91.20
2018-12-15T06:10:06.608Z,91.10
2018-12-15T06:12:35.829Z,91.30
2018-12-15T06:15:05.454Z,91.10
2018-12-15T06:17:34.090Z,91.40
2018-12-15T06:20:03.028Z,91.20
2018-12-15T06:22:31.778Z,90.80
2018-12-15T06:25:00.448Z,90.80
2018-12-15T06:27:29.139Z,90.80
2018-12-15T06:29:57.837Z,90.80
2018-12-15T06:32:27.513Z,91.10
2018-12-15T06:34:56.262Z,91.40
2018-12-15T06:37:24.945Z,90.70
2018-12-15T06:39:53.604Z,90.80
2018-12-15T06:42:22.375Z,90.70
2018-12-15T06:44:51.082Z,90.90
2018-12-15T06:47:19.866Z,90.70
2018-12-15T06:49:48.622Z,90.60
2018-12-15T06:52:17.329Z,90.70
2018-12-15T06:54:46.110Z,90.30
2018-12-15T06:57:14.822Z,90.30
2018-12-15T06:59:43.602Z,90.80
2018-12-15T07:02:12.329Z,90.50
2018-12-15T07:04:41.185Z,90.00
2018-12-15T07:07:09.988Z,90.10
2018-12-15T07:09:38.725Z,90.10
2018-12-15T07:12:07.433Z,90.30
2018-12-15T07:14:36.058Z,90.00
2018-12-15T07:17:04.811Z,90.00
2018-12-15T07:19:33.929Z,89.80
2018-12-15T07:22:02.751Z,90.00
2018-12-15T07:24:31.568Z,90.30
2018-12-15T07:27:00.277Z,90.00
2018-12-15T07:29:28.970Z,90.00
2018-12-15T07:31:58.490Z,90.60
2018-12-15T07:34:27.249Z,90.30
2018-12-15T07:36:55.932Z,89.80
2018-12-15T07:39:24.753Z,89.50
2018-12-15T07:41:53.767Z,89.80
2018-12-15T07:44:22.501Z,89.60
2018-12-15T07:46:51.149Z,89.20
2018-12-15T07:49:19.975Z,89.90
2018-12-15T07:51:48.746Z,88.20
2018-12-15T07:54:17.540Z,89.00
2018-12-15T07:56:46.375Z,89.60
2018-12-15T07:59:15.138Z,88.90
2018-12-15T08:01:43.961Z,88.30
2018-12-15T08:04:12.930Z,88.20
2018-12-15T08:06:41.629Z,88.00
2018-12-15T08:09:10.408Z,87.10
2018-12-15T08:11:44.590Z,87.40
2018-12-15T08:14:13.793Z,87.20
2018-12-15T08:16:42.549Z,86.80
2018-12-15T08:19:12.184Z,87.50
2018-12-15T08:21:40.906Z,87.80
2018-12-15T08:24:09.654Z,87.00
2018-12-15T08:26:38.403Z,87.00
2018-12-15T08:29:08.233Z,87.30
2018-12-15T08:31:36.977Z,86.70
2018-12-15T08:34:06.467Z,87.00
2018-12-15T08:36:35.432Z,87.00
2018-12-15T08:39:07.042Z,86.50
2018-12-15T08:41:37.767Z,85.60
2018-12-15T08:44:06.568Z,86.10
2018-12-15T08:46:35.233Z,86.90
2018-12-15T08:49:04.747Z,87.40
2018-12-15T08:51:33.747Z,86.20
2018-12-15T08:54:02.511Z,86.40
2018-12-15T08:56:32.224Z,86.40
2018-12-15T08:59:01.049Z,86.80
2018-12-15T09:01:29.841Z,86.70
2018-12-15T09:03:58.616Z,87.40
2018-12-15T09:06:27.331Z,86.80
2018-12-15T09:08:56.071Z,86.10
2018-12-15T09:11:24.833Z,87.00
2018-12-15T09:13:53.592Z,87.60
2018-12-15T09:16:26.433Z,88.60
2018-12-15T09:18:53.022Z,87.80
2018-12-15T09:21:21.854Z,88.20
2018-12-15T09:23:50.658Z,88.00
2018-12-15T09:26:19.519Z,88.00
2018-12-15T09:28:48.240Z,88.70
2018-12-15T09:31:17.085Z,89.00
2018-12-15T09:33:46.871Z,89.10
2018-12-15T09:36:15.922Z,89.10
2018-12-15T09:38:44.986Z,89.70
2018-12-15T09:41:13.806Z,90.20
2018-12-15T09:43:42.681Z,89.80
2018-12-15T09:46:11.412Z,89.70
2018-12-15T09:48:40.131Z,90.00
2018-12-15T09:51:08.865Z,89.30
2018-12-15T09:53:37.991Z,88.90
2018-12-15T09:56:06.738Z,89.30
2018-12-15T09:58:35.494Z,89.60
2018-12-15T10:01:04.301Z,89.20
2018-12-15T10:03:33.509Z,89.30
2018-12-15T10:06:02.485Z,89.00
2018-12-15T10:08:32.294Z,89.20
2018-12-15T10:11:01.205Z,88.50
2018-12-15T10:18:27.293Z,89.20
2018-12-15T10:20:56.175Z,89.00
2018-12-15T10:23:25.019Z,89.10
2018-12-15T10:25:53.782Z,89.40
2018-12-15T10:28:22.601Z,90.00
2018-12-15T10:30:56.628Z,90.10
2018-12-15T10:33:25.449Z,90.00
2018-12-15T10:35:54.093Z,90.00
2018-12-15T10:38:22.782Z,90.00
2018-12-15T10:40:51.518Z,89.80
2018-12-15T10:43:20.260Z,89.50
2018-12-15T10:45:49.301Z,89.50
2018-12-15T10:48:17.997Z,88.50
2018-12-15T10:50:46.718Z,89.10
2018-12-15T10:53:16.514Z,90.00
2018-12-15T10:55:45.240Z,89.90
2018-12-15T10:58:13.876Z,89.80
2018-12-15T11:00:48.181Z,89.50
2018-12-15T11:03:16.975Z,90.20
2018-12-15T11:05:45.632Z,90.00
2018-12-15T11:08:14.694Z,90.40
2018-12-15T11:10:43.422Z,90.50
2018-12-15T11:13:12.184Z,90.60
2018-12-15T11:15:41.081Z,90.50
2018-12-15T11:18:09.852Z,90.60
2018-12-15T11:20:38.646Z,90.60
2018-12-15T11:23:07.426Z,90.60
2018-12-15T11:25:36.128Z,90.50
2018-12-15T11:28:04.901Z,90.50
2018-12-15T11:30:33.722Z,90.60
2018-12-15T11:33:02.475Z,90.50
2018-12-15T11:35:32.665Z,91.10
2018-12-15T11:38:02.452Z,90.80
2018-12-15T11:40:31.388Z,90.70
2018-12-15T11:43:00.069Z,89.90
2018-12-15T11:45:28.801Z,90.10
2018-12-15T11:47:57.561Z,90.20
2018-12-15T11:50:26.354Z,90.30
2018-12-15T11:52:55.105Z,90.40
2018-12-15T11:55:23.937Z,90.50
2018-12-15T11:57:52.581Z,90.50
2018-12-15T12:00:21.246Z,91.20
2018-12-15T12:02:50.071Z,91.40
2018-12-15T12:05:18.817Z,91.90
2018-12-15T12:07:47.906Z,91.10
2018-12-15T12:10:16.948Z,91.30
2018-12-15T12:12:45.696Z,91.60
2018-12-15T12:15:14.507Z,91.40
2018-12-15T12:17:43.662Z,91.80
2018-12-15T12:20:12.466Z,91.30
2018-12-15T12:22:41.229Z,91.30
2018-12-15T12:25:10.943Z,91.20
2018-12-15T12:27:41.530Z,90.90
2018-12-15T12:30:10.401Z,90.90
2018-12-15T12:32:39.082Z,90.80
2018-12-15T12:35:07.796Z,90.30
2018-12-15T12:37:36.726Z,90.30
2018-12-15T12:40:05.851Z,90.10
2018-12-15T12:42:34.718Z,90.40
2018-12-15T12:45:03.732Z,90.50
2018-12-15T12:47:32.568Z,90.30
2018-12-15T12:50:01.249Z,90.40
2018-12-15T12:52:31.922Z,90.00
2018-12-15T12:55:00.625Z,89.70
2018-12-15T12:57:29.250Z,90.00
2018-12-15T12:59:58.039Z,90.20
2018-12-15T13:02:26.961Z,89.90
2018-12-15T13:04:55.701Z,90.00
2018-12-15T13:07:24.649Z,90.10
2018-12-15T13:09:53.456Z,89.80
2018-12-15T13:12:22.284Z,88.00
2018-12-15T13:14:51.105Z,88.30
2018-12-15T13:17:19.908Z,88.90
2018-12-15T13:19:48.755Z,89.20
2018-12-15T13:22:17.671Z,90.00
2018-12-15T13:24:46.429Z,90.00
2018-12-15T13:27:15.192Z,90.00
2018-12-15T13:29:43.953Z,89.10
2018-12-15T13:32:13.921Z,89.80
2018-12-15T13:34:42.593Z,90.20
2018-12-15T13:37:11.468Z,87.90
2018-12-15T13:39:40.178Z,85.30
2018-12-15T13:42:09.000Z,85.60
2018-12-15T13:44:37.701Z,85.20
2018-12-15T13:47:06.713Z,84.90
2018-12-15T13:49:36.559Z,83.10
2018-12-15T13:52:05.389Z,83.10
2018-12-15T13:54:34.319Z,82.40
2018-12-15T13:57:03.509Z,82.60
2018-12-15T13:59:32.233Z,82.70
2018-12-15T14:02:01.241Z,83.10
2018-12-15T14:04:31.175Z,82.90
2018-12-15T14:07:00.165Z,82.80
2018-12-15T14:09:28.834Z,83.90
2018-12-15T14:11:57.590Z,83.10
2018-12-15T14:14:26.229Z,82.70
2018-12-15T14:16:54.981Z,82.40
2018-12-15T14:19:23.909Z,82.40
2018-12-15T14:21:52.696Z,82.30
2018-12-15T14:24:21.525Z,84.00
2018-12-15T14:26:50.576Z,84.90
2018-12-15T14:29:19.983Z,85.10
2018-12-15T14:31:48.646Z,85.70
2018-12-15T14:34:17.393Z,85.80
2018-12-15T14:36:46.128Z,86.50
2018-12-15T14:39:14.831Z,87.60
2018-12-15T14:41:43.579Z,88.20
2018-12-15T14:44:12.196Z,88.50
2018-12-15T14:46:40.941Z,89.00
2018-12-15T14:49:09.866Z,89.10
2018-12-15T14:51:38.499Z,90.00
2018-12-15T14:54:07.170Z,90.50
2018-12-15T14:56:35.943Z,90.80
2018-12-15T14:59:04.746Z,91.30
2018-12-15T15:01:33.563Z,91.60
2018-12-15T15:04:02.261Z,91.70
2018-12-15T15:06:31.073Z,91.80
2018-12-15T15:09:00.038Z,92.10
2018-12-15T15:11:29.026Z,92.30
2018-12-15T15:13:58.425Z,92.20
2018-12-15T15:16:27.221Z,92.20
2018-12-15T15:18:56.093Z,92.20
2018-12-15T15:21:24.882Z,92.10
2018-12-15T15:23:53.764Z,92.00
2018-12-15T15:26:22.477Z,91.90
2018-12-15T15:28:51.449Z,91.60
2018-12-15T15:31:20.266Z,91.80
2018-12-15T15:33:49.081Z,91.80
2018-12-15T15:36:18.125Z,91.80
2018-12-15T15:38:47.039Z,91.90
2018-12-15T15:41:16.741Z,91.90
2018-12-15T15:43:45.666Z,91.60
2018-12-15T15:46:14.698Z,91.70
2018-12-15T15:48:43.406Z,91.50
2018-12-15T15:51:12.373Z,91.20
2018-12-15T15:53:41.064Z,91.10
2018-12-15T15:56:09.949Z,90.70
2018-12-15T15:58:38.673Z,90.90
2018-12-15T16:01:07.437Z,90.90
2018-12-15T16:03:36.209Z,90.80
2018-12-15T16:06:05.104Z,90.40
2018-12-15T16:08:33.885Z,89.70
2018-12-15T16:11:02.609Z,89.40
2018-12-15T16:13:31.365Z,90.00
2018-12-15T16:16:01.041Z,90.00
2018-12-15T16:18:29.701Z,90.40
2018-12-15T16:20:58.465Z,90.30
2018-12-15T16:23:27.142Z,90.30
2018-12-15T16:25:55.883Z,90.20
2018-12-15T16:28:24.626Z,90.60
2018-12-15T16:30:53.351Z,90.20
2018-12-15T16:33:22.065Z,90.40
2018-12-15T16:35:50.886Z,90.70
2018-12-15T16:38:20.498Z,91.20
2018-12-15T16:40:50.769Z,90.90
2018-12-15T16:43:19.496Z,91.10
2018-12-15T16:45:48.237Z,91.30
2018-12-15T16:48:16.964Z,91.50
2018-12-15T16:50:49.947Z,91.60
2018-12-15T16:53:16.538Z,91.70
2018-12-15T16:55:45.222Z,91.70
2018-12-15T16:58:13.893Z,92.10
2018-12-15T17:00:42.644Z,92.00
2018-12-15T17:03:11.437Z,91.90
2018-12-15T17:05:40.132Z,92.20
2018-12-15T17:08:15.622Z,92.40
2018-12-15T17:10:44.435Z,92.60
2018-12-15T17:13:13.186Z,92.90
2018-12-15T17:15:41.981Z,93.00
2018-12-15T17:18:10.843Z,92.90
2018-12-15T17:20:39.522Z,92.90
2018-12-15T17:23:08.313Z,92.90
2018-12-15T17:25:37.969Z,93.00
2018-12-15T17:28:06.712Z,93.20
2018-12-15T17:30:35.486Z,92.90
2018-12-15T17:33:04.410Z,93.10
2018-12-15T17:35:33.186Z,93.40
2018-12-15T17:38:01.989Z,93.70
2018-12-15T17:40:31.585Z,93.70
2018-12-15T17:43:00.318Z,93.70
2018-12-15T17:45:29.096Z,93.40
2018-12-15T17:47:57.848Z,93.60
2018-12-15T17:50:27.493Z,93.70
2018-12-15T17:52:56.221Z,94.20
2018-12-15T17:55:26.017Z,93.70
2018-12-15T17:57:54.719Z,93.70
2018-12-15T18:00:23.486Z,93.70
2018-12-15T18:02:52.153Z,93.40
2018-12-15T18:05:21.056Z,93.40
2018-12-15T18:07:50.113Z,93.40
2018-12-15T18:10:18.870Z,93.40
2018-12-15T18:12:47.565Z,93.40
2018-12-15T18:15:16.344Z,93.70
2018-12-15T18:17:45.012Z,93.90
2018-12-15T18:20:13.785Z,94.30
2018-12-15T18:22:42.645Z,94.40
2018-12-15T18:25:11.429Z,94.30
2018-12-15T18:27:41.047Z,94.30
2018-12-15T18:30:11.159Z,94.30
2018-12-15T18:32:39.854Z,94.30
2018-12-15T18:35:08.561Z,94.10
2018-12-15T18:37:37.348Z,94.20
2018-12-15T18:40:07.050Z,93.90
2018-12-15T18:42:35.781Z,93.80
2018-12-15T18:45:06.689Z,93.90
2018-12-15T18:47:35.440Z,93.80
2018-12-15T18:50:04.952Z,93.80
2018-12-15T18:52:33.758Z,93.70
2018-12-15T18:55:02.495Z,93.80
2018-12-15T18:57:31.189Z,93.70
2018-12-15T18:59:59.950Z,93.10
2018-12-15T19:02:28.807Z,93.10
2018-12-15T19:04:57.582Z,93.30
2018-12-15T19:07:26.254Z,92.70
2018-12-15T19:09:55.007Z,92.80
2018-12-15T19:12:23.780Z,92.70
2018-12-15T19:14:52.533Z,92.50
2018-12-15T19:17:25.826Z,92.60
2018-12-15T19:19:54.577Z,92.50
2018-12-15T19:22:23.325Z,92.80
2018-12-15T19:24:52.327Z,93.10
2018-12-15T19:27:21.348Z,93.60
2018-12-15T19:29:50.056Z,93.90
2018-12-15T19:32:18.784Z,93.80
2018-12-15T19:34:52.439Z,93.60
2018-12-15T19:37:18.381Z,93.60
2018-12-15T19:39:47.085Z,93.60
2018-12-15T19:42:16.270Z,93.20
2018-12-15T19:44:45.025Z,93.50
2018-12-15T19:47:13.722Z,93.50
2018-12-15T19:49:42.419Z,93.30
2018-12-15T19:52:11.302Z,92.70
2018-12-15T19:54:40.107Z,92.70
2018-12-15T19:57:08.765Z,92.60
2018-12-15T19:59:37.566Z,92.70
2018-12-15T20:02:06.267Z,92.70
2018-12-15T20:04:35.344Z,92.90
2018-12-15T20:07:04.097Z,93.30
2018-12-15T20:09:32.845Z,93.10
2018-12-15T20:12:01.560Z,93.40
2018-12-15T20:14:30.225Z,93.60
2018-12-15T20:16:58.923Z,93.90
2018-12-15T20:19:27.689Z,93.80
2018-12-15T20:21:56.497Z,93.40
2018-12-15T20:24:25.254Z,93.30
2018-12-15T20:26:53.992Z,93.00
2018-12-15T20:29:22.706Z,92.90
2018-12-15T20:31:51.525Z,92.90
2018-12-15T20:34:20.607Z,92.20
2018-12-15T20:36:49.365Z,91.30
2018-12-15T20:39:17.995Z,91.50
2018-12-15T20:41:46.726Z,90.90
2018-12-15T20:44:15.474Z,90.20
2018-12-15T20:46:50.731Z,90.00
2018-12-15T20:49:19.341Z,90.00
2018-12-15T20:51:48.070Z,91.00
2018-12-15T20:54:19.702Z,92.30
2018-12-15T20:56:48.532Z,94.20
2018-12-15T20:59:17.368Z,94.70
2018-12-15T21:01:46.217Z,95.20
2018-12-15T21:04:14.943Z,95.50
2018-12-15T21:06:43.608Z,95.60
2018-12-15T21:09:12.424Z,95.90
2018-12-15T21:11:41.147Z,95.90
2018-12-15T21:14:09.979Z,96.00
2018-12-15T21:16:38.780Z,96.00
2018-12-15T21:19:07.479Z,96.00
2018-12-15T21:21:36.182Z,96.10
2018-12-15T21:24:04.987Z,96.20
2018-12-15T21:26:33.728Z,96.40
2018-12-15T21:29:02.477Z,96.50
2018-12-15T21:31:31.312Z,96.50
2018-12-15T21:34:00.026Z,96.20
2018-12-15T21:36:28.862Z,96.20
2018-12-15T21:38:57.569Z,96.10
2018-12-15T21:41:26.354Z,96.10
2018-12-15T21:43:55.048Z,96.00
2018-12-15T21:46:23.720Z,96.10
2018-12-15T21:48:53.796Z,96.00
2018-12-15T21:51:22.473Z,96.00
2018-12-15T21:53:51.990Z,96.10
2018-12-15T21:56:20.794Z,95.90
2018-12-15T21:58:49.542Z,95.90
2018-12-15T22:01:18.305Z,96.10
2018-12-15T22:03:47.061Z,96.30
2018-12-15T22:06:15.848Z,96.50
2018-12-15T22:08:44.657Z,96.50
2018-12-15T22:11:13.391Z,96.70
2018-12-15T22:13:42.092Z,96.90
2018-12-15T22:16:10.816Z,97.00
2018-12-15T22:18:39.521Z,97.00
2018-12-15T22:21:08.205Z,97.00
2018-12-15T22:23:36.981Z,97.10
2018-12-15T22:26:05.759Z,97.10
2018-12-15T22:28:34.493Z,97.20
2018-12-15T22:31:03.293Z,97.40
2018-12-15T22:33:32.026Z,97.30
2018-12-15T22:36:00.733Z,97.50
2018-12-15T22:38:29.463Z,97.60
2018-12-15T22:40:58.126Z,97.70
2018-12-15T22:43:26.892Z,97.70
2018-12-15T22:45:55.754Z,97.90
2018-12-15T22:48:24.465Z,98.10
2018-12-15T22:50:53.201Z,98.10
2018-12-15T22:53:22.077Z,97.90
2018-12-15T22:55:50.777Z,97.90
2018-12-15T22:58:19.547Z,97.30
2018-12-15T23:00:53.563Z,96.90
2018-12-15T23:03:24.194Z,96.40
2018-12-15T23:05:52.982Z,96.00
2018-12-15T23:08:21.998Z,95.40
2018-12-15T23:10:50.681Z,95.30
2018-12-15T23:13:19.358Z,95.40
2018-12-15T23:15:48.086Z,95.60
2018-12-15T23:18:16.731Z,95.80
2018-12-15T23:20:45.454Z,95.90
2018-12-15T23:23:14.149Z,96.00
2018-12-15T23:25:43.086Z,96.10
2018-12-15T23:28:11.943Z,96.10
2018-12-15T23:30:40.742Z,96.20
2018-12-15T23:33:09.449Z,96.20
2018-12-15T23:35:38.304Z,96.20
2018-12-15T23:38:07.025Z,96.00
2018-12-15T23:40:35.662Z,95.80
2018-12-15T23:43:05.473Z,95.70
2018-12-15T23:45:34.179Z,95.70
2018-12-15T23:48:02.977Z,95.80
2018-12-15T23:50:31.736Z,95.90
2018-12-15T23:53:00.415Z,95.70
2018-12-15T23:55:29.181Z,95.60
2018-12-15T23:57:58.205Z,95.70
